Station MVXA2 - Mendenhall Valley, AK Image indicating link to RSS feed of recent meteorological observations for station MVXA2


Conditions at MVXA2 as of
(12:52 am AKDT)
0852 GMT on 05/26/2024:
     

Click on the graph icon in the table below to see a time series plot of the last five days of that observation.

5-day plot - Wind Direction Wind Direction (WDIR):NNW ( 330 deg true )
5-day plot - Wind Speed Wind Speed (WSPD): 1 kts
5-day plot - Wind Gust Wind Gust (GST): 2 kts
5-day plot - Air Temperature Air Temperature (ATMP): 45.7 °F
5-day plot - Dew Point Dew Point (DEWP): 40.3 °F
5-day plot - Wind Speed at 10 Meters Wind Speed at 10 meters (WSPD10M): 2 kts
5-day plot - Wind Speed at 20 Meters Wind Speed at 20 meters (WSPD20M): 2 kts
5-day plot -  Wind Speed, Wind Gust and Atmospheric Pressure Combined plot of Wind Speed, Gust, and Air Pressure
Previous observations
TIME
(AKDT)
5-day plot - Wind Direction
WDIR
 
5-day plot - Wind Speed
WSPD
kts
5-day plot - Wind Gust
GST
kts
5-day plot - Wave Height
WVHT
ft
5-day plot - Dominant Wave Period
DPD
sec
5-day plot - Average Wave Period
APD
sec
5-day plot - Mean Wave Direction
MWD
 
5-day plot - Atmospheric Pressure
PRES
in
5-day plot - Pressure Tendency
PTDY
in
5-day plot - Air Temperature
ATMP
°F
5-day plot - Water Temperature
WTMP
°F
5-day plot - Dew Point
DEWP
°F
5-day plot - Salinity
SAL
psu
5-day plot - Visibility
VIS
nmi
5-day plot - Tide (above MLLW)
TIDE
ft
2024-05-26 12:42 am E 2 5------ 45.7- 40.3---
2024-05-26 12:32 am E 3 5------ 45.9- 40.3---
2024-05-26 12:22 am E 3 5------ 45.9- 40.3---
2024-05-26 12:13 am E 3 5------ 46.0- 40.3---
2024-05-26 12:02 am E 3 5------ 46.2- 40.3---
2024-05-25 11:52 pm E 3 6------ 46.2- 40.3---
2024-05-25 11:42 pm E 3 6------ 46.6- 40.3---
2024-05-25 11:32 pm SE 3 5------ 46.9- 39.7---
2024-05-25 11:22 pmSSE 3 7------ 46.9- 39.7---
2024-05-25 11:12 pmSSE 3 7------ 46.8- 39.9---
2024-05-25 11:02 pmSSE 3 6------ 46.9- 40.1---
2024-05-25 10:52 pmSSE 2 6------ 46.9- 40.1---
2024-05-25 10:42 pm SE 2 4------ 47.1- 40.3---
2024-05-25 10:32 pmESE 1 3------ 47.3- 40.3---
2024-05-25 10:22 pmESE 2 4------ 47.7- 39.6---
2024-05-25 10:12 pmSSE 3 5------ 47.7- 39.2---
2024-05-25 10:02 pmSSE 3 6------ 47.7- 39.4---
2024-05-25 09:52 pmSSE 3 6------ 47.5- 39.6---
2024-05-25 09:42 pmSSE 4 8------ 47.5- 39.6---
2024-05-25 09:32 pmSSE 4 9------ 47.5- 39.6---
2024-05-25 09:22 pmSSE 4 9------ 47.5- 39.7---
2024-05-25 09:12 pmSSE 5 9------ 47.7- 39.9---
2024-05-25 09:02 pmSSE 4 8------ 47.7- 39.7---
2024-05-25 08:52 pmSSE 4 10------ 47.8- 39.9---
2024-05-25 08:42 pm S 4 8------ 47.8- 40.1---
2024-05-25 08:32 pmSSE 4 8------ 47.8- 40.1---
2024-05-25 08:22 pmSSE 3 7------ 48.0- 40.1---
2024-05-25 08:12 pmSSE 4 9------ 48.2- 40.3---
2024-05-25 08:02 pm S 4 11------ 48.6- 39.9---
2024-05-25 07:52 pmSSW 7 12------ 48.4- 39.6---
2024-05-25 07:42 pm S 6 12------ 48.4- 40.1---
2024-05-25 07:32 pmSSW 6 10------ 48.4- 40.3---
2024-05-25 07:22 pm S 5 10------ 48.7- 39.7---
2024-05-25 07:12 pmSSW 8 14------ 48.6- 39.2---
2024-05-25 07:02 pmSSW 8 13------ 48.6- 39.2---
2024-05-25 06:52 pmSSW 8 14------ 48.2- 39.6---
2024-05-25 06:42 pmSSW 9 15------ 48.2- 39.6---
2024-05-25 06:32 pmSSW 8 15------ 48.0- 39.7---
2024-05-25 06:22 pmSSW 10 17------ 47.8- 39.2---
2024-05-25 06:12 pmSSW 11 18------ 47.8- 39.6---
2024-05-25 06:02 pm S 9 16------ 47.8- 39.6---
2024-05-25 05:52 pm S 9 19------ 47.8- 39.6---
2024-05-25 05:42 pmSSW 10 17------ 47.8- 39.4---
2024-05-25 05:32 pmSSW 10 16------ 47.7- 39.4---
2024-05-25 05:22 pmSSW 10 15------ 47.3- 39.7---
2024-05-25 05:12 pm S 8 16------ 47.7- 39.7---
2024-05-25 05:02 pm S 9 15------ 47.7- 39.6---
2024-05-25 04:52 pm S 8 19------ 47.7- 39.4---
2024-05-25 04:42 pm S 8 15------ 47.8- 39.4---
2024-05-25 04:32 pm S 8 15------ 47.8- 39.6---
2024-05-25 04:22 pm S 9 15------ 47.5- 39.6---
2024-05-25 04:12 pm S 8 15------ 47.5- 39.6---
2024-05-25 03:52 pmSSW 9 16------ 47.3- 39.4---
2024-05-25 03:42 pm S 10 18------ 47.3- 39.4---
2024-05-25 03:32 pm S 8 17------ 47.1- 39.6---
2024-05-25 03:22 pm S 11 22------ 47.1- 39.2---
2024-05-25 03:12 pm S 9 17------ 47.1- 39.4---
2024-05-25 03:02 pm S 9 18------ 46.9- 39.6---
2024-05-25 02:52 pm S 11 18------ 46.9- 39.6---
2024-05-25 02:42 pm S 9 16------ 46.9- 39.6---
2024-05-25 02:32 pm S 8 17------ 46.9- 39.9---
2024-05-25 02:22 pmSSW 10 19------ 46.4- 39.6---
2024-05-25 02:12 pmSSW 12 20------ 46.2- 39.2---
2024-05-25 02:02 pmSSW 14 22------ 46.4- 38.8---
2024-05-25 01:52 pmSSW 12 20------ 46.0- 39.6---
2024-05-25 01:42 pmSSW 13 20------ 45.9- 39.4---
2024-05-25 01:32 pmSSW 13 22------ 45.9- 39.2---
2024-05-25 01:22 pmSSW 14 24------ 45.9- 38.8---
2024-05-25 01:12 pmSSW 14 23------ 45.9- 39.2---
2024-05-25 01:02 pm S 12 22------ 45.9- 39.4---
2024-05-25 12:52 pmSSW 13 23------ 45.9- 39.6---
2024-05-25 12:42 pm S 12 22------ 45.9- 39.6---
2024-05-25 12:32 pm S 12 23------ 45.9- 39.4---
2024-05-25 12:22 pm S 12 21------ 46.0- 39.2---
2024-05-25 12:12 pm S 12 21------ 46.2- 39.4---
2024-05-25 12:02 pm S 9 19------ 46.4- 40.1---
2024-05-25 11:52 am S 11 20------ 46.6- 39.6---
2024-05-25 11:42 am S 8 17------ 46.4- 40.1---
2024-05-25 11:32 am S 9 19------ 45.9- 40.1---
2024-05-25 11:22 amSSW 12 20------ 45.7- 39.2---
2024-05-25 11:12 amSSW 11 18------ 45.9- 39.0---
2024-05-25 11:02 amSSW 9 17------ 45.7- 39.2---
2024-05-25 10:52 amSSW 11 18------ 45.5- 39.0---
2024-05-25 10:42 am S 8 18------ 45.5- 39.6---
2024-05-25 10:32 am S 8 16------ 45.7- 39.6---
2024-05-25 10:22 am S 8 18------ 45.5- 39.6---
2024-05-25 10:12 am S 9 18------ 45.7- 39.2---
2024-05-25 10:02 am S 9 18------ 45.7- 40.1---
2024-05-25 09:52 am S 9 16------ 45.7- 40.1---
2024-05-25 09:42 am S 7 15------ 45.9- 40.3---
2024-05-25 09:32 am S 8 16------ 45.7- 40.1---
2024-05-25 09:22 amSSW 11 17------ 45.7- 39.6---
2024-05-25 09:12 amSSW 12 20------ 45.7- 39.6---
2024-05-25 09:02 amSSW 11 16------ 45.9- 39.9---
2024-05-25 08:52 amSSW 11 17------ 46.0- 40.1---
2024-05-25 08:42 amSSW 11 18------ 46.0- 40.1---
2024-05-25 08:32 amSSW 10 18------ 46.0- 39.9---
2024-05-25 08:22 amSSW 10 17------ 46.0- 39.9---
2024-05-25 08:12 amSSW 10 16------ 46.0- 39.7---
2024-05-25 08:02 amSSW 10 17------ 46.0- 39.9---
2024-05-25 07:52 am S 6 12------ 46.4- 40.6---
2024-05-25 07:42 am S 3 8------ 46.0- 41.2---
2024-05-25 07:32 amSSE 4 8------ 45.9- 40.8---
2024-05-25 07:22 amSSE 4 8------ 45.7- 40.6---
2024-05-25 07:12 amSSE 5 9------ 45.7- 40.6---
2024-05-25 07:02 amSSE 6 14------ 45.7- 40.5---
2024-05-25 06:52 am S 6 14------ 45.5- 40.6---
2024-05-25 06:42 am S 7 12------ 45.5- 40.5---
2024-05-25 06:32 amSSE 7 12------ 45.7- 40.5---
2024-05-25 06:22 am S 7 14------ 45.9- 40.3---
2024-05-25 06:12 am S 7 15------ 45.7- 40.3---
2024-05-25 06:02 am S 7 13------ 45.5- 40.5---
2024-05-25 05:52 amSSE 5 12------ 45.3- 40.5---
2024-05-25 05:42 amSSE 5 9------ 45.3- 40.5---
2024-05-25 05:32 am S 5 9------ 45.5- 40.3---
2024-05-25 05:22 amSSE 4 7------ 45.5- 40.3---
2024-05-25 05:12 amSSE 4 9------ 45.3- 40.3---
2024-05-25 05:02 am S 4 8------ 45.3- 40.1---
2024-05-25 04:52 amSSE 3 7------ 44.8- 40.1---
2024-05-25 04:42 amESE 3 7------ 44.4- 40.3---
2024-05-25 04:32 am SE 2 5------ 44.1- 40.3---
2024-05-25 04:22 am E 3 4------ 43.5- 40.1---
2024-05-25 04:12 am E 3 5------ 43.3- 40.1---
2024-05-25 04:02 am E 3 5------ 43.5- 40.5---
2024-05-25 03:52 amESE 3 5------ 43.5- 40.3---
2024-05-25 03:42 amESE 3 5------ 43.5- 40.3---
2024-05-25 03:32 amESE 2 4------ 43.5- 40.3---
2024-05-25 03:22 am E 2 3------ 43.5- 40.5---
2024-05-25 03:12 am E 2 3------ 43.7- 40.6---
2024-05-25 03:02 am E 2 3------ 43.7- 40.6---
2024-05-25 02:52 amNNE 1 2------ 43.7- 40.5---
2024-05-25 02:42 amENE 1 2------ 43.7- 40.6---
2024-05-25 02:33 am E 2 4------ 43.5- 40.5---
2024-05-25 02:22 amNNW 1 2------ 43.9- 40.6---
2024-05-25 02:12 am- 0 2------ 44.1- 40.8---
2024-05-25 02:02 amENE 2 3------ 44.1- 40.8---
2024-05-25 01:52 am- 0 2------ 44.1- 40.8---
2024-05-25 01:42 am NW 1 2------ 44.2- 40.8---
2024-05-25 01:32 am- 0 2------ 44.4- 41.0---
2024-05-25 01:22 am- 0 1------ 44.4- 41.0---
2024-05-25 01:12 amENE 1 2------ 44.4- 41.0---
2024-05-25 01:02 am E 1 2------ 44.6- 41.2---